sensor_id;sensor_type;location;lat;lon;timestamp;P1;durP1;ratioP1;P2;durP2;ratioP2
26435;SDS011;15351;52.408;16.826;2023-03-14T00:18:34;4.70;;;2.80;;
26435;SDS011;15351;52.408;16.826;2023-03-14T00:21:14;5.30;;;3.00;;
26435;SDS011;15351;52.408;16.826;2023-03-14T00:24:00;4.20;;;2.80;;
26435;SDS011;15351;52.408;16.826;2023-03-14T00:26:58;4.40;;;3.00;;
26435;SDS011;15351;52.408;16.826;2023-03-14T00:33:12;3.50;;;2.60;;
26435;SDS011;15351;52.408;16.826;2023-03-14T00:35:41;4.40;;;2.70;;
26435;SDS011;15351;52.408;16.826;2023-03-14T00:38:16;4.40;;;2.30;;
26435;SDS011;15351;52.408;16.826;2023-03-14T00:40:49;4.60;;;2.40;;
26435;SDS011;15351;52.408;16.826;2023-03-14T00:43:19;3.10;;;2.40;;
26435;SDS011;15351;52.408;16.826;2023-03-14T00:45:50;3.70;;;2.30;;
26435;SDS011;15351;52.408;16.826;2023-03-14T00:48:18;4.30;;;2.20;;
26435;SDS011;15351;52.408;16.826;2023-03-14T00:51:03;3.10;;;2.00;;
26435;SDS011;15351;52.408;16.826;2023-03-14T00:53:47;3.30;;;2.00;;
26435;SDS011;15351;52.408;16.826;2023-03-14T00:56:37;3.90;;;2.60;;
26435;SDS011;15351;52.408;16.826;2023-03-14T00:59:19;4.50;;;1.80;;
26435;SDS011;15351;52.408;16.826;2023-03-14T01:01:47;3.10;;;1.80;;
26435;SDS011;15351;52.408;16.826;2023-03-14T01:04:14;2.70;;;1.60;;
26435;SDS011;15351;52.408;16.826;2023-03-14T01:07:06;3.30;;;1.30;;
26435;SDS011;15351;52.408;16.826;2023-03-14T01:09:51;2.00;;;1.30;;
26435;SDS011;15351;52.408;16.826;2023-03-14T01:12:18;2.10;;;1.50;;
26435;SDS011;15351;52.408;16.826;2023-03-14T01:15:05;2.10;;;1.30;;
26435;SDS011;15351;52.408;16.826;2023-03-14T01:18:08;1.70;;;1.10;;
26435;SDS011;15351;52.408;16.826;2023-03-14T01:20:42;1.80;;;1.00;;
26435;SDS011;15351;52.408;16.826;2023-03-14T01:23:49;2.10;;;1.10;;
26435;SDS011;15351;52.408;16.826;2023-03-14T01:26:34;1.70;;;1.00;;
26435;SDS011;15351;52.408;16.826;2023-03-14T01:35:31;3.10;;;0.90;;
26435;SDS011;15351;52.408;16.826;2023-03-14T01:41:44;0.80;;;0.80;;
26435;SDS011;15351;52.408;16.826;2023-03-14T01:44:12;2.10;;;0.90;;
26435;SDS011;15351;52.408;16.826;2023-03-14T01:46:42;0.90;;;0.80;;
26435;SDS011;15351;52.408;16.826;2023-03-14T01:49:37;1.20;;;0.80;;
26435;SDS011;15351;52.408;16.826;2023-03-14T01:52:36;1.50;;;0.80;;
26435;SDS011;15351;52.408;16.826;2023-03-14T01:55:36;1.40;;;0.80;;
26435;SDS011;15351;52.408;16.826;2023-03-14T01:58:06;1.70;;;0.90;;
26435;SDS011;15351;52.408;16.826;2023-03-14T02:00:50;1.10;;;0.90;;
26435;SDS011;15351;52.408;16.826;2023-03-14T02:03:39;1.40;;;1.00;;
26435;SDS011;15351;52.408;16.826;2023-03-14T02:06:17;1.50;;;1.10;;
26435;SDS011;15351;52.408;16.826;2023-03-14T02:09:28;1.10;;;1.00;;
26435;SDS011;15351;52.408;16.826;2023-03-14T02:12:25;1.50;;;1.00;;
26435;SDS011;15351;52.408;16.826;2023-03-14T02:15:25;1.20;;;1.00;;
26435;SDS011;15351;52.408;16.826;2023-03-14T02:18:34;1.60;;;1.10;;
26435;SDS011;15351;52.408;16.826;2023-03-14T02:21:47;2.50;;;1.10;;
26435;SDS011;15351;52.408;16.826;2023-03-14T02:27:52;1.70;;;1.30;;
26435;SDS011;15351;52.408;16.826;2023-03-14T02:30:30;2.30;;;1.40;;
26435;SDS011;15351;52.408;16.826;2023-03-14T02:33:08;2.30;;;1.50;;
26435;SDS011;15351;52.408;16.826;2023-03-14T02:35:45;2.20;;;1.50;;
26435;SDS011;15351;52.408;16.826;2023-03-14T02:40:54;3.30;;;1.60;;
26435;SDS011;15351;52.408;16.826;2023-03-14T02:43:39;3.40;;;1.70;;
26435;SDS011;15351;52.408;16.826;2023-03-14T02:46:25;3.30;;;2.00;;
26435;SDS011;15351;52.408;16.826;2023-03-14T02:49:37;3.70;;;2.20;;
26435;SDS011;15351;52.408;16.826;2023-03-14T02:52:04;5.60;;;2.10;;
26435;SDS011;15351;52.408;16.826;2023-03-14T02:54:34;4.30;;;2.00;;
26435;SDS011;15351;52.408;16.826;2023-03-14T02:57:05;3.00;;;2.10;;
26435;SDS011;15351;52.408;16.826;2023-03-14T02:59:58;3.90;;;2.30;;
26435;SDS011;15351;52.408;16.826;2023-03-14T03:02:32;3.10;;;2.50;;
26435;SDS011;15351;52.408;16.826;2023-03-14T03:05:29;3.80;;;2.40;;
26435;SDS011;15351;52.408;16.826;2023-03-14T03:08:19;3.70;;;2.40;;
26435;SDS011;15351;52.408;16.826;2023-03-14T03:11:03;4.10;;;2.90;;
26435;SDS011;15351;52.408;16.826;2023-03-14T03:13:33;4.10;;;2.80;;
26435;SDS011;15351;52.408;16.826;2023-03-14T03:16:03;4.70;;;2.70;;
26435;SDS011;15351;52.408;16.826;2023-03-14T03:18:31;3.60;;;2.70;;
26435;SDS011;15351;52.408;16.826;2023-03-14T03:21:23;4.50;;;2.70;;
26435;SDS011;15351;52.408;16.826;2023-03-14T03:23:53;5.00;;;2.80;;
26435;SDS011;15351;52.408;16.826;2023-03-14T03:26:22;4.30;;;2.90;;
26435;SDS011;15351;52.408;16.826;2023-03-14T03:29:01;5.60;;;3.10;;
26435;SDS011;15351;52.408;16.826;2023-03-14T03:31:40;4.20;;;3.00;;
26435;SDS011;15351;52.408;16.826;2023-03-14T03:34:11;4.70;;;2.90;;
26435;SDS011;15351;52.408;16.826;2023-03-14T03:36:39;5.90;;;2.90;;
26435;SDS011;15351;52.408;16.826;2023-03-14T03:39:09;3.90;;;3.00;;
26435;SDS011;15351;52.408;16.826;2023-03-14T03:42:00;4.60;;;3.20;;
26435;SDS011;15351;52.408;16.826;2023-03-14T03:44:53;5.40;;;3.20;;
26435;SDS011;15351;52.408;16.826;2023-03-14T03:47:26;4.60;;;3.20;;
26435;SDS011;15351;52.408;16.826;2023-03-14T03:49:58;6.10;;;3.60;;
26435;SDS011;15351;52.408;16.826;2023-03-14T03:52:26;4.10;;;3.30;;
26435;SDS011;15351;52.408;16.826;2023-03-14T03:54:54;5.30;;;3.30;;
26435;SDS011;15351;52.408;16.826;2023-03-14T03:57:23;4.80;;;3.40;;
26435;SDS011;15351;52.408;16.826;2023-03-14T03:59:50;6.30;;;3.80;;
26435;SDS011;15351;52.408;16.826;2023-03-14T04:02:18;4.70;;;3.60;;
26435;SDS011;15351;52.408;16.826;2023-03-14T04:04:46;5.60;;;3.70;;
26435;SDS011;15351;52.408;16.826;2023-03-14T04:07:38;5.50;;;3.90;;
26435;SDS011;15351;52.408;16.826;2023-03-14T04:10:10;8.10;;;3.90;;
26435;SDS011;15351;52.408;16.826;2023-03-14T04:12:43;5.60;;;3.90;;
26435;SDS011;15351;52.408;16.826;2023-03-14T04:15:40;7.70;;;4.00;;
26435;SDS011;15351;52.408;16.826;2023-03-14T04:18:25;5.20;;;4.00;;
26435;SDS011;15351;52.408;16.826;2023-03-14T04:20:59;6.90;;;4.60;;
26435;SDS011;15351;52.408;16.826;2023-03-14T04:24:08;6.50;;;4.40;;
26435;SDS011;15351;52.408;16.826;2023-03-14T04:26:50;5.70;;;3.60;;
26435;SDS011;15351;52.408;16.826;2023-03-14T04:29:16;5.40;;;3.80;;
26435;SDS011;15351;52.408;16.826;2023-03-14T04:31:49;5.20;;;3.70;;
26435;SDS011;15351;52.408;16.826;2023-03-14T04:34:19;5.30;;;4.00;;
26435;SDS011;15351;52.408;16.826;2023-03-14T04:36:50;5.90;;;4.10;;
26435;SDS011;15351;52.408;16.826;2023-03-14T04:39:29;6.30;;;4.00;;
26435;SDS011;15351;52.408;16.826;2023-03-14T04:42:40;5.40;;;3.90;;
26435;SDS011;15351;52.408;16.826;2023-03-14T04:45:57;6.70;;;4.10;;
26435;SDS011;15351;52.408;16.826;2023-03-14T04:48:31;6.50;;;4.20;;
26435;SDS011;15351;52.408;16.826;2023-03-14T04:51:15;6.00;;;4.40;;
26435;SDS011;15351;52.408;16.826;2023-03-14T04:54:20;7.50;;;4.50;;
26435;SDS011;15351;52.408;16.826;2023-03-14T04:57:06;6.70;;;4.60;;
26435;SDS011;15351;52.408;16.826;2023-03-14T04:59:55;6.50;;;4.30;;
26435;SDS011;15351;52.408;16.826;2023-03-14T05:02:55;6.10;;;4.30;;
26435;SDS011;15351;52.408;16.826;2023-03-14T05:12:53;7.80;;;4.40;;
26435;SDS011;15351;52.408;16.826;2023-03-14T05:16:06;8.10;;;4.90;;
26435;SDS011;15351;52.408;16.826;2023-03-14T05:18:50;7.50;;;4.60;;
26435;SDS011;15351;52.408;16.826;2023-03-14T05:25:30;7.80;;;4.40;;
26435;SDS011;15351;52.408;16.826;2023-03-14T05:29:00;7.10;;;4.50;;
26435;SDS011;15351;52.408;16.826;2023-03-14T05:32:40;7.30;;;4.40;;
26435;SDS011;15351;52.408;16.826;2023-03-14T05:35:40;6.30;;;4.70;;
26435;SDS011;15351;52.408;16.826;2023-03-14T05:38:44;8.60;;;5.00;;
26435;SDS011;15351;52.408;16.826;2023-03-14T05:42:09;8.00;;;5.10;;
26435;SDS011;15351;52.408;16.826;2023-03-14T05:45:09;7.40;;;4.80;;
26435;SDS011;15351;52.408;16.826;2023-03-14T05:47:59;7.70;;;4.50;;
26435;SDS011;15351;52.408;16.826;2023-03-14T05:51:18;7.80;;;5.10;;
26435;SDS011;15351;52.408;16.826;2023-03-14T05:54:11;7.20;;;4.90;;
26435;SDS011;15351;52.408;16.826;2023-03-14T06:00:15;6.90;;;4.70;;
26435;SDS011;15351;52.408;16.826;2023-03-14T06:03:26;6.70;;;4.90;;
26435;SDS011;15351;52.408;16.826;2023-03-14T06:06:34;7.30;;;5.00;;
26435;SDS011;15351;52.408;16.826;2023-03-14T06:09:42;9.40;;;4.90;;
26435;SDS011;15351;52.408;16.826;2023-03-14T06:12:40;8.50;;;4.70;;
26435;SDS011;15351;52.408;16.826;2023-03-14T06:16:09;7.70;;;5.00;;
26435;SDS011;15351;52.408;16.826;2023-03-14T06:26:21;7.90;;;5.20;;
26435;SDS011;15351;52.408;16.826;2023-03-14T06:31:53;8.60;;;5.00;;
26435;SDS011;15351;52.408;16.826;2023-03-14T06:41:03;8.30;;;5.30;;
26435;SDS011;15351;52.408;16.826;2023-03-14T06:44:26;7.80;;;4.70;;
26435;SDS011;15351;52.408;16.826;2023-03-14T06:47:17;7.60;;;4.70;;
26435;SDS011;15351;52.408;16.826;2023-03-14T06:50:14;6.80;;;4.60;;
26435;SDS011;15351;52.408;16.826;2023-03-14T06:53:37;8.90;;;5.50;;
26435;SDS011;15351;52.408;16.826;2023-03-14T06:56:34;11.00;;;5.80;;
26435;SDS011;15351;52.408;16.826;2023-03-14T06:59:58;9.60;;;5.60;;
26435;SDS011;15351;52.408;16.826;2023-03-14T07:03:22;8.60;;;5.20;;
26435;SDS011;15351;52.408;16.826;2023-03-14T07:06:20;7.60;;;5.00;;
26435;SDS011;15351;52.408;16.826;2023-03-14T07:09:47;6.70;;;4.40;;
26435;SDS011;15351;52.408;16.826;2023-03-14T07:12:49;7.00;;;4.10;;
26435;SDS011;15351;52.408;16.826;2023-03-14T07:18:21;6.10;;;4.30;;
26435;SDS011;15351;52.408;16.826;2023-03-14T07:21:31;6.10;;;4.30;;
26435;SDS011;15351;52.408;16.826;2023-03-14T07:24:11;6.00;;;4.00;;
26435;SDS011;15351;52.408;16.826;2023-03-14T07:27:34;5.20;;;3.50;;
26435;SDS011;15351;52.408;16.826;2023-03-14T07:30:55;6.50;;;3.60;;
26435;SDS011;15351;52.408;16.826;2023-03-14T07:33:44;5.60;;;3.60;;
26435;SDS011;15351;52.408;16.826;2023-03-14T07:36:15;5.40;;;3.50;;
26435;SDS011;15351;52.408;16.826;2023-03-14T07:38:51;4.70;;;3.40;;
26435;SDS011;15351;52.408;16.826;2023-03-14T07:41:28;6.80;;;3.40;;
26435;SDS011;15351;52.408;16.826;2023-03-14T07:44:40;5.20;;;3.40;;
26435;SDS011;15351;52.408;16.826;2023-03-14T07:47:06;4.30;;;3.20;;
26435;SDS011;15351;52.408;16.826;2023-03-14T07:49:34;4.80;;;3.10;;
26435;SDS011;15351;52.408;16.826;2023-03-14T07:52:05;3.50;;;2.80;;
26435;SDS011;15351;52.408;16.826;2023-03-14T07:54:32;4.70;;;2.90;;
26435;SDS011;15351;52.408;16.826;2023-03-14T07:57:09;4.70;;;2.70;;
26435;SDS011;15351;52.408;16.826;2023-03-14T07:59:37;4.60;;;2.70;;
26435;SDS011;15351;52.408;16.826;2023-03-14T08:02:11;4.10;;;2.60;;
26435;SDS011;15351;52.408;16.826;2023-03-14T08:04:40;4.50;;;2.60;;
26435;SDS011;15351;52.408;16.826;2023-03-14T08:07:07;4.10;;;2.70;;
26435;SDS011;15351;52.408;16.826;2023-03-14T08:09:51;4.40;;;2.40;;
26435;SDS011;15351;52.408;16.826;2023-03-14T08:12:27;3.60;;;2.40;;
26435;SDS011;15351;52.408;16.826;2023-03-14T08:14:57;4.90;;;2.40;;
26435;SDS011;15351;52.408;16.826;2023-03-14T08:17:25;5.00;;;2.50;;
26435;SDS011;15351;52.408;16.826;2023-03-14T08:19:59;3.90;;;2.70;;
26435;SDS011;15351;52.408;16.826;2023-03-14T08:22:39;4.60;;;2.90;;
26435;SDS011;15351;52.408;16.826;2023-03-14T08:25:06;4.20;;;2.70;;
26435;SDS011;15351;52.408;16.826;2023-03-14T08:27:32;4.00;;;2.60;;
26435;SDS011;15351;52.408;16.826;2023-03-14T08:30:08;3.90;;;2.30;;
26435;SDS011;15351;52.408;16.826;2023-03-14T08:32:38;4.60;;;2.80;;
26435;SDS011;15351;52.408;16.826;2023-03-14T08:35:12;5.50;;;2.60;;
26435;SDS011;15351;52.408;16.826;2023-03-14T08:37:57;3.60;;;2.80;;
26435;SDS011;15351;52.408;16.826;2023-03-14T08:41:04;5.20;;;2.70;;
26435;SDS011;15351;52.408;16.826;2023-03-14T08:44:20;4.60;;;2.50;;
26435;SDS011;15351;52.408;16.826;2023-03-14T08:46:45;4.20;;;2.70;;
26435;SDS011;15351;52.408;16.826;2023-03-14T08:52:04;4.60;;;2.60;;
26435;SDS011;15351;52.408;16.826;2023-03-14T08:55:10;4.30;;;2.50;;
26435;SDS011;15351;52.408;16.826;2023-03-14T08:57:40;4.00;;;2.70;;
26435;SDS011;15351;52.408;16.826;2023-03-14T09:00:11;4.50;;;2.90;;
26435;SDS011;15351;52.408;16.826;2023-03-14T09:03:09;6.40;;;2.70;;
26435;SDS011;15351;52.408;16.826;2023-03-14T09:05:55;5.40;;;2.80;;
26435;SDS011;15351;52.408;16.826;2023-03-14T09:08:24;5.00;;;2.50;;
26435;SDS011;15351;52.408;16.826;2023-03-14T09:10:57;3.70;;;2.50;;
26435;SDS011;15351;52.408;16.826;2023-03-14T09:13:24;5.10;;;2.50;;
26435;SDS011;15351;52.408;16.826;2023-03-14T09:15:56;4.60;;;2.40;;
26435;SDS011;15351;52.408;16.826;2023-03-14T09:18:24;5.30;;;2.50;;
26435;SDS011;15351;52.408;16.826;2023-03-14T09:20:52;4.10;;;2.30;;
26435;SDS011;15351;52.408;16.826;2023-03-14T09:23:19;4.30;;;2.40;;
26435;SDS011;15351;52.408;16.826;2023-03-14T09:26:18;4.10;;;2.50;;
26435;SDS011;15351;52.408;16.826;2023-03-14T09:28:54;5.50;;;2.70;;
26435;SDS011;15351;52.408;16.826;2023-03-14T09:31:48;4.30;;;2.70;;
26435;SDS011;15351;52.408;16.826;2023-03-14T09:34:15;6.00;;;2.70;;
26435;SDS011;15351;52.408;16.826;2023-03-14T09:37:02;4.80;;;3.00;;
26435;SDS011;15351;52.408;16.826;2023-03-14T09:39:29;6.80;;;3.20;;
26435;SDS011;15351;52.408;16.826;2023-03-14T09:42:04;4.80;;;3.40;;
26435;SDS011;15351;52.408;16.826;2023-03-14T09:44:42;8.90;;;3.40;;
26435;SDS011;15351;52.408;16.826;2023-03-14T09:47:34;6.20;;;3.10;;
26435;SDS011;15351;52.408;16.826;2023-03-14T09:53:41;6.20;;;3.40;;
26435;SDS011;15351;52.408;16.826;2023-03-14T09:56:44;5.40;;;3.40;;
26435;SDS011;15351;52.408;16.826;2023-03-14T09:59:47;6.50;;;3.40;;
26435;SDS011;15351;52.408;16.826;2023-03-14T10:02:28;6.90;;;3.70;;
26435;SDS011;15351;52.408;16.826;2023-03-14T10:05:00;5.60;;;3.30;;
26435;SDS011;15351;52.408;16.826;2023-03-14T10:07:30;5.20;;;3.50;;
26435;SDS011;15351;52.408;16.826;2023-03-14T10:10:55;7.60;;;3.30;;
26435;SDS011;15351;52.408;16.826;2023-03-14T10:17:16;6.50;;;3.50;;
26435;SDS011;15351;52.408;16.826;2023-03-14T10:31:27;5.20;;;3.10;;
26435;SDS011;15351;52.408;16.826;2023-03-14T10:34:30;6.30;;;3.40;;
26435;SDS011;15351;52.408;16.826;2023-03-14T10:37:03;5.00;;;3.00;;
26435;SDS011;15351;52.408;16.826;2023-03-14T10:39:39;7.10;;;3.40;;
26435;SDS011;15351;52.408;16.826;2023-03-14T10:42:23;5.50;;;3.30;;
26435;SDS011;15351;52.408;16.826;2023-03-14T10:44:56;4.50;;;2.90;;
26435;SDS011;15351;52.408;16.826;2023-03-14T10:47:26;5.70;;;2.90;;
26435;SDS011;15351;52.408;16.826;2023-03-14T10:49:59;6.10;;;3.20;;
26435;SDS011;15351;52.408;16.826;2023-03-14T10:57:31;5.80;;;3.20;;
26435;SDS011;15351;52.408;16.826;2023-03-14T11:00:57;6.20;;;3.80;;
26435;SDS011;15351;52.408;16.826;2023-03-14T11:03:27;8.80;;;3.90;;
26435;SDS011;15351;52.408;16.826;2023-03-14T11:06:06;7.40;;;3.50;;
26435;SDS011;15351;52.408;16.826;2023-03-14T11:08:53;7.40;;;3.50;;
26435;SDS011;15351;52.408;16.826;2023-03-14T11:27:40;6.50;;;3.20;;
26435;SDS011;15351;52.408;16.826;2023-03-14T11:30:58;5.70;;;3.00;;
26435;SDS011;15351;52.408;16.826;2023-03-14T11:34:46;5.80;;;3.00;;
26435;SDS011;15351;52.408;16.826;2023-03-14T11:37:33;4.10;;;2.60;;
26435;SDS011;15351;52.408;16.826;2023-03-14T11:41:25;7.30;;;3.00;;
26435;SDS011;15351;52.408;16.826;2023-03-14T11:45:15;6.00;;;3.20;;
26435;SDS011;15351;52.408;16.826;2023-03-14T11:52:35;6.70;;;3.30;;
26435;SDS011;15351;52.408;16.826;2023-03-14T11:55:39;6.60;;;3.40;;
26435;SDS011;15351;52.408;16.826;2023-03-14T11:58:27;4.70;;;2.70;;
26435;SDS011;15351;52.408;16.826;2023-03-14T12:01:02;6.70;;;3.10;;
26435;SDS011;15351;52.408;16.826;2023-03-14T12:03:45;5.80;;;3.10;;
26435;SDS011;15351;52.408;16.826;2023-03-14T12:07:35;6.80;;;3.10;;
26435;SDS011;15351;52.408;16.826;2023-03-14T12:11:29;6.00;;;3.00;;
26435;SDS011;15351;52.408;16.826;2023-03-14T12:14:44;6.20;;;2.50;;
26435;SDS011;15351;52.408;16.826;2023-03-14T12:17:29;6.80;;;2.10;;
26435;SDS011;15351;52.408;16.826;2023-03-14T12:23:35;4.40;;;1.90;;
26435;SDS011;15351;52.408;16.826;2023-03-14T12:29:22;5.10;;;2.00;;
26435;SDS011;15351;52.408;16.826;2023-03-14T12:57:17;5.20;;;2.20;;
26435;SDS011;15351;52.408;16.826;2023-03-14T13:07:02;3.90;;;2.00;;
26435;SDS011;15351;52.408;16.826;2023-03-14T13:14:07;4.90;;;1.90;;
26435;SDS011;15351;52.408;16.826;2023-03-14T13:23:57;6.20;;;2.00;;
26435;SDS011;15351;52.408;16.826;2023-03-14T13:26:26;3.20;;;1.40;;
26435;SDS011;15351;52.408;16.826;2023-03-14T13:29:32;3.20;;;1.60;;
26435;SDS011;15351;52.408;16.826;2023-03-14T13:32:22;3.40;;;1.50;;
26435;SDS011;15351;52.408;16.826;2023-03-14T13:34:57;3.10;;;1.50;;
26435;SDS011;15351;52.408;16.826;2023-03-14T13:38:23;3.30;;;1.40;;
26435;SDS011;15351;52.408;16.826;2023-03-14T13:41:35;2.80;;;1.40;;
26435;SDS011;15351;52.408;16.826;2023-03-14T13:50:22;3.40;;;1.70;;
26435;SDS011;15351;52.408;16.826;2023-03-14T13:53:15;4.10;;;2.00;;
26435;SDS011;15351;52.408;16.826;2023-03-14T13:56:10;3.40;;;1.80;;
26435;SDS011;15351;52.408;16.826;2023-03-14T13:58:46;2.90;;;1.80;;
26435;SDS011;15351;52.408;16.826;2023-03-14T14:01:32;4.00;;;1.90;;
26435;SDS011;15351;52.408;16.826;2023-03-14T14:06:59;3.50;;;2.00;;
26435;SDS011;15351;52.408;16.826;2023-03-14T14:09:53;4.00;;;1.90;;
26435;SDS011;15351;52.408;16.826;2023-03-14T14:12:32;3.20;;;1.80;;
26435;SDS011;15351;52.408;16.826;2023-03-14T14:15:27;4.20;;;1.90;;
26435;SDS011;15351;52.408;16.826;2023-03-14T14:18:25;4.10;;;1.80;;
26435;SDS011;15351;52.408;16.826;2023-03-14T14:20:54;3.30;;;1.80;;
26435;SDS011;15351;52.408;16.826;2023-03-14T14:23:53;3.20;;;1.60;;
26435;SDS011;15351;52.408;16.826;2023-03-14T14:26:26;3.50;;;1.70;;
26435;SDS011;15351;52.408;16.826;2023-03-14T14:29:00;3.90;;;2.00;;
26435;SDS011;15351;52.408;16.826;2023-03-14T14:32:17;4.90;;;2.00;;
26435;SDS011;15351;52.408;16.826;2023-03-14T14:35:06;4.10;;;2.20;;
26435;SDS011;15351;52.408;16.826;2023-03-14T14:37:48;3.90;;;1.90;;
26435;SDS011;15351;52.408;16.826;2023-03-14T14:40:20;4.00;;;2.10;;
26435;SDS011;15351;52.408;16.826;2023-03-14T14:42:55;3.90;;;2.40;;
26435;SDS011;15351;52.408;16.826;2023-03-14T14:45:40;3.10;;;1.70;;
26435;SDS011;15351;52.408;16.826;2023-03-14T14:48:35;3.60;;;1.50;;
26435;SDS011;15351;52.408;16.826;2023-03-14T14:51:25;2.40;;;1.50;;
26435;SDS011;15351;52.408;16.826;2023-03-14T14:54:32;3.10;;;1.70;;
26435;SDS011;15351;52.408;16.826;2023-03-14T14:57:52;4.70;;;2.20;;
26435;SDS011;15351;52.408;16.826;2023-03-14T15:01:03;4.50;;;2.50;;
26435;SDS011;15351;52.408;16.826;2023-03-14T15:04:14;6.00;;;2.90;;
26435;SDS011;15351;52.408;16.826;2023-03-14T15:16:42;6.10;;;3.50;;
26435;SDS011;15351;52.408;16.826;2023-03-14T15:19:46;7.70;;;4.60;;
26435;SDS011;15351;52.408;16.826;2023-03-14T15:22:22;7.70;;;4.20;;
26435;SDS011;15351;52.408;16.826;2023-03-14T15:25:20;5.90;;;3.60;;
26435;SDS011;15351;52.408;16.826;2023-03-14T15:28:22;6.50;;;3.60;;
26435;SDS011;15351;52.408;16.826;2023-03-14T15:30:58;5.40;;;3.30;;
26435;SDS011;15351;52.408;16.826;2023-03-14T15:34:22;8.50;;;4.30;;
26435;SDS011;15351;52.408;16.826;2023-03-14T15:37:12;5.90;;;3.60;;
26435;SDS011;15351;52.408;16.826;2023-03-14T15:39:45;5.80;;;3.60;;
26435;SDS011;15351;52.408;16.826;2023-03-14T15:42:45;6.10;;;3.40;;
26435;SDS011;15351;52.408;16.826;2023-03-14T15:45:36;5.60;;;3.00;;
26435;SDS011;15351;52.408;16.826;2023-03-14T15:48:14;7.20;;;3.10;;
26435;SDS011;15351;52.408;16.826;2023-03-14T15:50:43;6.30;;;3.40;;
26435;SDS011;15351;52.408;16.826;2023-03-14T15:53:20;4.80;;;2.90;;
26435;SDS011;15351;52.408;16.826;2023-03-14T15:55:55;5.80;;;3.30;;
26435;SDS011;15351;52.408;16.826;2023-03-14T15:58:26;7.00;;;3.40;;
26435;SDS011;15351;52.408;16.826;2023-03-14T16:00:59;6.50;;;3.80;;
26435;SDS011;15351;52.408;16.826;2023-03-14T16:04:16;7.10;;;3.70;;
26435;SDS011;15351;52.408;16.826;2023-03-14T16:10:20;7.80;;;4.20;;
26435;SDS011;15351;52.408;16.826;2023-03-14T16:14:04;8.10;;;4.20;;
26435;SDS011;15351;52.408;16.826;2023-03-14T16:17:13;6.10;;;3.20;;
26435;SDS011;15351;52.408;16.826;2023-03-14T16:20:14;4.30;;;2.90;;
26435;SDS011;15351;52.408;16.826;2023-03-14T16:23:14;4.30;;;2.80;;
26435;SDS011;15351;52.408;16.826;2023-03-14T16:25:47;5.80;;;3.30;;
26435;SDS011;15351;52.408;16.826;2023-03-14T16:28:16;5.20;;;3.00;;
26435;SDS011;15351;52.408;16.826;2023-03-14T16:30:42;6.30;;;3.90;;
26435;SDS011;15351;52.408;16.826;2023-03-14T16:34:05;7.10;;;4.30;;
26435;SDS011;15351;52.408;16.826;2023-03-14T16:36:35;6.50;;;4.40;;
26435;SDS011;15351;52.408;16.826;2023-03-14T16:39:06;9.00;;;5.50;;
26435;SDS011;15351;52.408;16.826;2023-03-14T16:41:37;9.70;;;5.70;;
26435;SDS011;15351;52.408;16.826;2023-03-14T16:44:07;10.50;;;6.60;;
26435;SDS011;15351;52.408;16.826;2023-03-14T16:46:35;10.90;;;6.70;;
26435;SDS011;15351;52.408;16.826;2023-03-14T16:49:06;10.50;;;6.50;;
26435;SDS011;15351;52.408;16.826;2023-03-14T16:51:41;9.70;;;6.20;;
26435;SDS011;15351;52.408;16.826;2023-03-14T16:54:08;9.50;;;5.80;;
26435;SDS011;15351;52.408;16.826;2023-03-14T16:56:34;9.40;;;5.70;;
26435;SDS011;15351;52.408;16.826;2023-03-14T16:59:02;10.50;;;5.20;;
26435;SDS011;15351;52.408;16.826;2023-03-14T17:01:36;8.60;;;4.90;;
26435;SDS011;15351;52.408;16.826;2023-03-14T17:04:17;7.80;;;5.20;;
26435;SDS011;15351;52.408;16.826;2023-03-14T17:06:45;8.90;;;5.60;;
26435;SDS011;15351;52.408;16.826;2023-03-14T17:09:11;9.10;;;6.10;;
26435;SDS011;15351;52.408;16.826;2023-03-14T17:11:47;10.80;;;6.70;;
26435;SDS011;15351;52.408;16.826;2023-03-14T17:14:17;9.10;;;5.00;;
26435;SDS011;15351;52.408;16.826;2023-03-14T17:16:59;7.40;;;4.30;;
26435;SDS011;15351;52.408;16.826;2023-03-14T17:19:29;9.20;;;5.90;;
26435;SDS011;15351;52.408;16.826;2023-03-14T17:22:05;8.70;;;4.50;;
26435;SDS011;15351;52.408;16.826;2023-03-14T17:24:39;6.70;;;3.50;;
26435;SDS011;15351;52.408;16.826;2023-03-14T17:27:26;5.50;;;3.70;;
26435;SDS011;15351;52.408;16.826;2023-03-14T17:29:56;5.10;;;3.20;;
26435;SDS011;15351;52.408;16.826;2023-03-14T17:32:29;5.70;;;3.20;;
26435;SDS011;15351;52.408;16.826;2023-03-14T17:35:04;5.40;;;3.00;;
26435;SDS011;15351;52.408;16.826;2023-03-14T17:40:35;5.80;;;3.10;;
26435;SDS011;15351;52.408;16.826;2023-03-14T17:43:26;5.60;;;3.30;;
26435;SDS011;15351;52.408;16.826;2023-03-14T17:46:27;6.20;;;3.50;;
26435;SDS011;15351;52.408;16.826;2023-03-14T17:49:22;6.70;;;3.70;;
26435;SDS011;15351;52.408;16.826;2023-03-14T17:51:52;8.20;;;4.30;;
26435;SDS011;15351;52.408;16.826;2023-03-14T17:54:48;10.40;;;5.90;;
26435;SDS011;15351;52.408;16.826;2023-03-14T17:57:17;8.20;;;5.00;;
26435;SDS011;15351;52.408;16.826;2023-03-14T18:03:03;10.20;;;6.00;;
26435;SDS011;15351;52.408;16.826;2023-03-14T18:05:37;9.50;;;5.70;;
26435;SDS011;15351;52.408;16.826;2023-03-14T18:08:05;10.70;;;5.20;;
26435;SDS011;15351;52.408;16.826;2023-03-14T18:10:36;8.90;;;5.40;;
26435;SDS011;15351;52.408;16.826;2023-03-14T18:13:25;9.30;;;5.60;;
26435;SDS011;15351;52.408;16.826;2023-03-14T18:16:05;9.00;;;5.60;;
26435;SDS011;15351;52.408;16.826;2023-03-14T18:18:39;8.30;;;4.70;;
26435;SDS011;15351;52.408;16.826;2023-03-14T18:21:18;7.90;;;4.50;;
26435;SDS011;15351;52.408;16.826;2023-03-14T18:23:48;7.20;;;4.20;;
26435;SDS011;15351;52.408;16.826;2023-03-14T18:26:19;7.20;;;4.40;;
26435;SDS011;15351;52.408;16.826;2023-03-14T18:28:46;7.10;;;4.20;;
26435;SDS011;15351;52.408;16.826;2023-03-14T18:31:14;7.30;;;4.30;;
26435;SDS011;15351;52.408;16.826;2023-03-14T18:33:58;8.50;;;5.00;;
26435;SDS011;15351;52.408;16.826;2023-03-14T18:36:28;7.60;;;5.10;;
26435;SDS011;15351;52.408;16.826;2023-03-14T18:38:55;6.30;;;3.80;;
26435;SDS011;15351;52.408;16.826;2023-03-14T18:41:24;6.70;;;3.50;;
26435;SDS011;15351;52.408;16.826;2023-03-14T18:43:56;5.30;;;3.20;;
26435;SDS011;15351;52.408;16.826;2023-03-14T18:46:27;5.50;;;3.20;;
26435;SDS011;15351;52.408;16.826;2023-03-14T18:48:58;7.00;;;3.80;;
26435;SDS011;15351;52.408;16.826;2023-03-14T18:51:49;6.20;;;3.90;;
26435;SDS011;15351;52.408;16.826;2023-03-14T18:54:24;6.40;;;3.90;;
26435;SDS011;15351;52.408;16.826;2023-03-14T18:56:51;7.00;;;3.90;;
26435;SDS011;15351;52.408;16.826;2023-03-14T18:59:23;8.30;;;4.70;;
26435;SDS011;15351;52.408;16.826;2023-03-14T19:02:09;8.90;;;4.70;;
26435;SDS011;15351;52.408;16.826;2023-03-14T19:04:59;8.80;;;5.10;;
26435;SDS011;15351;52.408;16.826;2023-03-14T19:07:31;8.20;;;4.70;;
26435;SDS011;15351;52.408;16.826;2023-03-14T19:10:26;11.00;;;5.20;;
26435;SDS011;15351;52.408;16.826;2023-03-14T19:12:57;9.10;;;5.20;;
26435;SDS011;15351;52.408;16.826;2023-03-14T19:15:29;11.60;;;6.90;;
26435;SDS011;15351;52.408;16.826;2023-03-14T19:18:00;10.90;;;7.50;;
26435;SDS011;15351;52.408;16.826;2023-03-14T19:20:30;11.40;;;7.50;;
26435;SDS011;15351;52.408;16.826;2023-03-14T19:23:04;11.40;;;5.20;;
26435;SDS011;15351;52.408;16.826;2023-03-14T19:25:35;7.20;;;4.00;;
26435;SDS011;15351;52.408;16.826;2023-03-14T19:28:11;4.10;;;2.30;;
26435;SDS011;15351;52.408;16.826;2023-03-14T19:30:38;4.30;;;1.70;;
26435;SDS011;15351;52.408;16.826;2023-03-14T19:33:30;4.30;;;1.90;;
26435;SDS011;15351;52.408;16.826;2023-03-14T19:39:03;2.50;;;1.70;;